createdAt,value
2022-07-29T00:02:12.357Z,14.20
2022-07-29T00:04:40.600Z,14.20
2022-07-29T00:07:08.960Z,14.20
2022-07-29T00:09:42.991Z,14.20
2022-07-29T00:12:26.278Z,14.23
2022-07-29T00:14:56.324Z,14.22
2022-07-29T00:17:26.304Z,14.23
2022-07-29T00:19:54.580Z,14.21
2022-07-29T00:22:23.055Z,14.18
2022-07-29T00:24:51.722Z,14.18
2022-07-29T00:27:19.984Z,14.15
2022-07-29T00:29:48.321Z,14.11
2022-07-29T00:32:16.648Z,14.06
2022-07-29T00:35:03.385Z,14.04
2022-07-29T00:37:31.766Z,14.04
2022-07-29T00:40:00.173Z,14.02
2022-07-29T00:42:28.773Z,13.99
2022-07-29T00:44:57.061Z,13.97
2022-07-29T00:47:25.339Z,13.95
2022-07-29T00:49:53.754Z,13.95
2022-07-29T00:52:22.462Z,13.91
2022-07-29T00:54:50.719Z,13.88
2022-07-29T00:57:19.400Z,13.84
2022-07-29T00:59:47.618Z,13.79
2022-07-29T01:02:15.947Z,13.76
2022-07-29T01:04:44.489Z,13.73
2022-07-29T01:07:13.252Z,13.70
2022-07-29T01:09:45.837Z,13.67
2022-07-29T01:12:19.619Z,13.65
2022-07-29T01:14:49.808Z,13.61
2022-07-29T01:17:38.088Z,13.58
2022-07-29T01:20:19.951Z,13.55
2022-07-29T01:23:22.718Z,13.54
2022-07-29T01:25:56.056Z,13.50
2022-07-29T01:28:56.800Z,13.47
2022-07-29T01:31:58.575Z,13.45
2022-07-29T01:34:46.214Z,13.43
2022-07-29T01:37:25.095Z,13.42
2022-07-29T01:39:57.067Z,13.41
2022-07-29T01:42:33.224Z,13.39
2022-07-29T01:45:15.143Z,13.36
2022-07-29T01:47:51.772Z,13.35
2022-07-29T01:50:24.760Z,13.35
2022-07-29T01:53:00.146Z,13.31
2022-07-29T01:55:32.282Z,13.29
2022-07-29T01:58:01.975Z,13.27
2022-07-29T02:00:33.607Z,13.24
2022-07-29T02:03:06.636Z,13.20
2022-07-29T02:05:36.270Z,13.18
2022-07-29T02:08:06.419Z,13.18
2022-07-29T02:10:36.673Z,13.15
2022-07-29T02:13:06.905Z,13.15
2022-07-29T02:15:36.625Z,13.14
2022-07-29T02:18:12.323Z,13.13
2022-07-29T02:20:42.452Z,13.13
2022-07-29T02:23:12.844Z,13.14
2022-07-29T02:25:44.078Z,13.16
2022-07-29T02:28:14.380Z,13.16
2022-07-29T02:30:44.436Z,13.15
2022-07-29T02:33:17.148Z,13.16
2022-07-29T02:35:47.214Z,13.17
2022-07-29T02:38:38.548Z,13.16
2022-07-29T02:41:12.927Z,13.16
2022-07-29T02:43:44.370Z,13.17
2022-07-29T02:46:28.565Z,13.19
2022-07-29T02:49:00.463Z,13.20
2022-07-29T02:52:02.975Z,13.20
2022-07-29T02:54:43.624Z,13.21
2022-07-29T02:57:30.039Z,13.23
2022-07-29T03:00:04.809Z,13.23
2022-07-29T03:02:37.677Z,13.23
2022-07-29T03:05:09.287Z,13.22
2022-07-29T03:07:41.477Z,13.22
2022-07-29T03:10:13.408Z,13.21
2022-07-29T03:12:43.861Z,13.21
2022-07-29T03:15:12.589Z,13.22
2022-07-29T03:17:41.526Z,13.22
2022-07-29T03:20:11.144Z,13.24
2022-07-29T03:22:44.630Z,13.24
2022-07-29T03:25:14.541Z,13.25
2022-07-29T03:27:43.868Z,13.26
2022-07-29T03:30:18.420Z,13.28
2022-07-29T03:32:52.557Z,13.30
2022-07-29T03:35:21.368Z,13.32
2022-07-29T03:37:50.244Z,13.34
2022-07-29T03:40:27.116Z,13.36
2022-07-29T03:42:56.738Z,13.36
2022-07-29T03:45:26.673Z,13.36
2022-07-29T03:48:01.290Z,13.38
2022-07-29T03:50:32.173Z,13.40
2022-07-29T03:53:00.864Z,13.42
2022-07-29T03:55:33.395Z,13.46
2022-07-29T03:58:03.404Z,13.49
2022-07-29T04:00:32.921Z,13.51
2022-07-29T04:03:01.775Z,13.56
2022-07-29T04:05:30.037Z,13.63
2022-07-29T04:07:58.342Z,13.72
2022-07-29T04:10:31.855Z,13.85
2022-07-29T04:13:02.362Z,13.96
2022-07-29T04:15:31.741Z,14.07
2022-07-29T04:18:00.622Z,14.16
2022-07-29T04:20:29.243Z,14.21
2022-07-29T04:22:57.522Z,14.26
2022-07-29T04:25:25.749Z,14.33
2022-07-29T04:28:03.167Z,14.40
2022-07-29T04:30:33.254Z,14.46
2022-07-29T04:33:03.230Z,14.53
2022-07-29T04:35:38.316Z,14.62
2022-07-29T04:38:15.839Z,14.73
2022-07-29T04:40:45.738Z,14.85
2022-07-29T04:43:17.026Z,14.98
2022-07-29T04:45:51.570Z,15.09
2022-07-29T04:48:24.020Z,15.23
2022-07-29T04:50:57.891Z,15.37
2022-07-29T04:53:27.181Z,15.47
2022-07-29T04:55:55.634Z,15.61
2022-07-29T04:58:24.780Z,15.72
2022-07-29T05:00:53.445Z,15.85
2022-07-29T05:03:21.760Z,16.01
2022-07-29T05:05:50.046Z,16.16
2022-07-29T05:08:18.520Z,16.32
2022-07-29T05:10:47.532Z,16.49
2022-07-29T05:13:15.748Z,16.64
2022-07-29T05:15:44.148Z,16.77
2022-07-29T05:18:12.470Z,16.86
2022-07-29T05:20:40.959Z,16.92
2022-07-29T05:23:09.284Z,16.97
2022-07-29T05:25:42.992Z,17.01
2022-07-29T05:28:12.975Z,17.05
2022-07-29T05:30:41.295Z,17.10
2022-07-29T05:33:09.589Z,17.17
2022-07-29T05:36:00.606Z,17.28
2022-07-29T05:38:30.020Z,17.36
2022-07-29T05:41:00.455Z,17.37
2022-07-29T05:43:29.722Z,17.35
2022-07-29T05:45:58.119Z,17.36
2022-07-29T05:48:26.788Z,17.39
2022-07-29T05:50:55.701Z,17.43
2022-07-29T05:53:24.761Z,17.47
2022-07-29T05:55:53.471Z,17.48
2022-07-29T05:58:21.751Z,17.47
2022-07-29T06:00:50.050Z,17.50
2022-07-29T06:03:18.327Z,17.51
2022-07-29T06:05:46.695Z,17.56
2022-07-29T06:08:15.045Z,17.62
2022-07-29T06:10:43.699Z,17.64
2022-07-29T06:13:12.519Z,17.68
2022-07-29T06:15:40.726Z,17.76
2022-07-29T06:18:11.030Z,17.89
2022-07-29T06:20:39.445Z,18.03
2022-07-29T06:23:07.710Z,18.16
2022-07-29T06:25:37.745Z,18.22
2022-07-29T06:28:06.435Z,18.28
2022-07-29T06:30:34.787Z,18.35
2022-07-29T06:33:03.847Z,18.40
2022-07-29T06:35:38.552Z,18.50
2022-07-29T06:38:30.682Z,18.59
2022-07-29T06:41:04.015Z,18.65
2022-07-29T06:43:50.852Z,18.76
2022-07-29T06:46:23.561Z,18.86
2022-07-29T06:48:53.443Z,18.92
2022-07-29T06:51:23.803Z,19.02
2022-07-29T06:53:59.869Z,19.13
2022-07-29T06:56:38.696Z,19.23
2022-07-29T06:59:10.429Z,19.32
2022-07-29T07:01:40.949Z,19.41
2022-07-29T07:04:10.423Z,19.51
2022-07-29T07:06:39.422Z,19.62
2022-07-29T07:09:08.131Z,19.75
2022-07-29T07:11:36.591Z,19.88
2022-07-29T07:14:04.956Z,19.99
2022-07-29T07:16:33.530Z,20.07
2022-07-29T07:19:01.971Z,20.16
2022-07-29T07:21:31.316Z,20.26
2022-07-29T07:24:00.735Z,20.33
2022-07-29T07:26:29.498Z,20.42
2022-07-29T07:28:59.066Z,20.51
2022-07-29T07:31:27.489Z,20.57
2022-07-29T07:33:56.221Z,20.60
2022-07-29T07:36:24.661Z,20.64
2022-07-29T07:38:52.983Z,20.67
2022-07-29T07:41:22.692Z,20.64
2022-07-29T07:43:50.949Z,20.63
2022-07-29T07:46:19.174Z,20.68
2022-07-29T07:48:47.919Z,20.72
2022-07-29T07:51:16.630Z,20.76
2022-07-29T07:53:45.875Z,20.79
2022-07-29T07:56:14.205Z,20.84
2022-07-29T07:58:42.483Z,20.89
2022-07-29T08:01:10.764Z,20.95
2022-07-29T08:03:40.016Z,20.93
2022-07-29T08:06:08.898Z,20.99
2022-07-29T08:08:37.263Z,21.06
2022-07-29T08:11:09.359Z,21.17
2022-07-29T08:13:39.729Z,21.23
2022-07-29T08:16:13.176Z,21.26
2022-07-29T08:18:43.621Z,21.31
2022-07-29T08:21:14.891Z,21.32
2022-07-29T08:23:58.687Z,21.29
2022-07-29T08:26:29.268Z,21.31
2022-07-29T08:28:58.056Z,21.35
2022-07-29T08:31:26.406Z,21.37
2022-07-29T08:33:54.936Z,21.40
2022-07-29T08:36:23.573Z,21.39
2022-07-29T08:38:52.144Z,21.36
2022-07-29T08:41:21.082Z,21.33
2022-07-29T08:43:50.543Z,21.32
2022-07-29T08:46:20.251Z,21.32
2022-07-29T08:48:49.276Z,21.34
2022-07-29T08:51:20.330Z,21.39
2022-07-29T08:53:50.041Z,21.45
2022-07-29T08:56:20.426Z,21.41
2022-07-29T08:58:52.199Z,21.45
2022-07-29T09:01:35.135Z,21.51
2022-07-29T09:04:11.111Z,21.52
2022-07-29T09:06:44.808Z,21.56
2022-07-29T09:09:14.929Z,21.60
2022-07-29T09:11:44.565Z,21.58
2022-07-29T09:14:14.884Z,21.61
2022-07-29T09:16:55.459Z,21.73
2022-07-29T09:19:26.399Z,21.74
2022-07-29T09:21:59.106Z,21.71
2022-07-29T09:24:35.422Z,21.75
